createdAt,value
2022-08-19T00:01:53.367Z,12.23
2022-08-19T00:04:24.412Z,12.23
2022-08-19T00:06:52.214Z,12.43
2022-08-19T00:09:21.584Z,13.57
2022-08-19T00:11:48.755Z,12.45
2022-08-19T00:14:18.117Z,11.77
2022-08-19T00:16:46.736Z,13.30
2022-08-19T00:19:13.641Z,12.13
2022-08-19T00:21:40.706Z,12.30
2022-08-19T00:24:13.746Z,12.23
2022-08-19T00:26:41.567Z,12.00
2022-08-19T00:29:10.637Z,13.45
2022-08-19T00:31:37.471Z,12.90
2022-08-19T00:34:05.102Z,12.55
2022-08-19T00:36:33.788Z,11.65
2022-08-19T00:39:01.140Z,13.00
2022-08-19T00:41:29.075Z,12.57
2022-08-19T00:44:00.552Z,12.10
2022-08-19T00:46:28.227Z,13.00
2022-08-19T00:48:57.080Z,12.15
2022-08-19T00:51:26.051Z,13.95
2022-08-19T00:53:53.472Z,17.60
2022-08-19T00:56:20.347Z,12.13
2022-08-19T00:58:47.484Z,13.27
2022-08-19T01:01:15.082Z,13.18
2022-08-19T01:03:57.577Z,13.45
2022-08-19T01:06:26.164Z,11.93
2022-08-19T01:08:53.009Z,13.23
2022-08-19T01:11:19.808Z,13.55
2022-08-19T01:13:49.838Z,13.90
2022-08-19T01:16:19.831Z,12.55
2022-08-19T01:18:46.716Z,11.60
2022-08-19T01:21:25.517Z,11.85
2022-08-19T01:23:52.457Z,11.40
2022-08-19T01:26:22.520Z,11.43
2022-08-19T01:28:53.302Z,14.15
2022-08-19T01:31:27.190Z,13.40
2022-08-19T01:33:57.452Z,13.82
2022-08-19T01:36:34.297Z,12.55
2022-08-19T01:39:05.165Z,11.55
2022-08-19T01:41:32.060Z,12.55
2022-08-19T01:44:13.464Z,11.48
2022-08-19T01:46:45.475Z,12.68
2022-08-19T01:49:12.254Z,11.70
2022-08-19T01:51:40.167Z,13.93
2022-08-19T01:54:08.992Z,12.05
2022-08-19T01:56:36.246Z,12.30
2022-08-19T01:59:07.674Z,11.47
2022-08-19T02:01:35.737Z,13.52
2022-08-19T02:06:30.389Z,11.60
2022-08-19T02:08:57.788Z,11.43
2022-08-19T02:11:29.697Z,12.43
2022-08-19T02:13:56.771Z,13.75
2022-08-19T02:16:23.718Z,13.00
2022-08-19T02:18:51.112Z,12.48
2022-08-19T02:21:19.582Z,13.32
2022-08-19T02:23:47.051Z,13.73
2022-08-19T02:26:14.587Z,12.57
2022-08-19T02:28:43.196Z,15.10
2022-08-19T02:31:12.645Z,15.27
2022-08-19T02:33:40.098Z,12.43
2022-08-19T02:36:08.015Z,14.70
2022-08-19T02:38:35.669Z,15.18
2022-08-19T02:41:13.539Z,12.88
2022-08-19T02:43:44.365Z,12.88
2022-08-19T02:46:33.156Z,12.90
2022-08-19T02:49:04.770Z,12.85
2022-08-19T02:51:37.894Z,12.95
2022-08-19T02:54:06.106Z,12.15
2022-08-19T02:59:01.704Z,12.57
2022-08-19T03:01:33.487Z,13.48
2022-08-19T03:04:03.358Z,13.48
2022-08-19T03:06:30.209Z,13.80
2022-08-19T03:08:57.603Z,14.07
2022-08-19T03:11:27.250Z,12.90
2022-08-19T03:13:55.282Z,14.20
2022-08-19T03:16:24.684Z,14.40
2022-08-19T03:18:52.599Z,15.07
2022-08-19T03:21:21.952Z,12.65
2022-08-19T03:23:49.339Z,13.30
2022-08-19T03:26:17.206Z,14.20
2022-08-19T03:28:51.633Z,14.88
2022-08-19T03:31:44.495Z,15.40
2022-08-19T03:34:18.567Z,14.90
2022-08-19T03:36:45.787Z,13.77
2022-08-19T03:39:12.629Z,15.82
2022-08-19T03:41:44.913Z,15.30
2022-08-19T03:44:16.791Z,14.93
2022-08-19T03:46:46.944Z,17.98
2022-08-19T03:49:14.648Z,14.25
2022-08-19T03:51:42.376Z,15.10
2022-08-19T03:54:13.826Z,15.00
2022-08-19T03:56:42.429Z,14.50
2022-08-19T03:59:16.999Z,15.85
2022-08-19T04:01:44.322Z,14.63
2022-08-19T04:04:11.159Z,16.73
2022-08-19T04:06:39.750Z,13.93
2022-08-19T04:09:09.596Z,15.35
2022-08-19T04:11:44.468Z,15.45
2022-08-19T04:14:19.407Z,15.80
2022-08-19T04:16:47.500Z,15.07
2022-08-19T04:19:16.006Z,16.10
2022-08-19T04:21:46.028Z,15.65
2022-08-19T04:24:13.571Z,18.08
2022-08-19T04:26:40.512Z,15.50
2022-08-19T04:29:20.583Z,14.57
2022-08-19T04:31:47.500Z,14.82
2022-08-19T04:34:18.042Z,14.48
2022-08-19T04:36:45.885Z,14.50
2022-08-19T04:39:17.887Z,14.90
2022-08-19T04:42:03.881Z,14.35
2022-08-19T04:44:33.299Z,14.07
2022-08-19T04:47:11.383Z,15.60
2022-08-19T04:49:38.637Z,14.18
2022-08-19T04:52:05.444Z,14.27
2022-08-19T04:54:38.879Z,13.32
2022-08-19T04:57:10.840Z,14.57
2022-08-19T04:59:39.828Z,14.40
2022-08-19T05:02:09.688Z,14.73
2022-08-19T05:04:40.059Z,14.73
2022-08-19T05:07:08.676Z,13.27
2022-08-19T05:09:55.347Z,16.20
2022-08-19T05:12:22.823Z,15.93
2022-08-19T05:14:57.671Z,16.27
2022-08-19T05:17:27.618Z,13.85
2022-08-19T05:20:14.626Z,16.92
2022-08-19T05:22:42.749Z,14.32
2022-08-19T05:25:14.275Z,12.77
2022-08-19T05:27:42.726Z,14.68
2022-08-19T05:30:10.623Z,13.57
2022-08-19T05:32:37.631Z,14.73
2022-08-19T05:35:06.279Z,15.85
2022-08-19T05:37:33.079Z,23.92
2022-08-19T05:39:59.924Z,14.18
2022-08-19T05:42:27.460Z,15.30
2022-08-19T05:44:54.427Z,13.65
2022-08-19T05:47:21.731Z,14.43
2022-08-19T05:49:50.825Z,14.03
2022-08-19T05:52:19.378Z,14.38
2022-08-19T05:54:48.923Z,13.52
2022-08-19T05:57:21.546Z,14.48
2022-08-19T05:59:49.427Z,15.27
2022-08-19T06:02:20.693Z,14.63
2022-08-19T06:04:47.469Z,13.73
2022-08-19T06:07:14.541Z,16.27
2022-08-19T06:09:43.793Z,15.80
2022-08-19T06:12:29.854Z,17.15
2022-08-19T06:15:00.985Z,13.85
2022-08-19T06:17:28.406Z,15.57
2022-08-19T06:19:55.258Z,14.68
2022-08-19T06:22:21.971Z,14.52
2022-08-19T06:24:48.844Z,15.73
2022-08-19T06:27:16.945Z,14.43
2022-08-19T06:29:43.719Z,14.27
2022-08-19T06:32:10.515Z,14.80
2022-08-19T06:34:37.282Z,16.67
2022-08-19T06:37:04.171Z,15.45
2022-08-19T06:39:34.793Z,18.30
2022-08-19T06:42:04.211Z,16.73
2022-08-19T06:44:35.354Z,16.52
2022-08-19T06:47:14.660Z,16.92
2022-08-19T06:49:42.716Z,17.80
2022-08-19T06:52:13.953Z,16.20
2022-08-19T06:54:55.315Z,17.02
2022-08-19T06:57:24.230Z,16.67
2022-08-19T06:59:51.191Z,17.25
2022-08-19T07:04:52.895Z,16.02
2022-08-19T07:07:21.970Z,17.25
2022-08-19T07:09:52.264Z,16.25
2022-08-19T07:14:56.483Z,15.80
2022-08-19T07:17:24.643Z,16.88
2022-08-19T07:19:54.478Z,15.80
2022-08-19T07:22:23.831Z,18.90
2022-08-19T07:24:52.311Z,17.10
2022-08-19T07:27:24.298Z,18.30
2022-08-19T07:29:57.213Z,18.00
2022-08-19T07:32:27.586Z,17.70
2022-08-19T07:34:55.047Z,16.92
2022-08-19T07:37:32.473Z,18.08
2022-08-19T07:40:00.004Z,18.02
2022-08-19T07:42:27.655Z,20.70
2022-08-19T07:44:54.471Z,19.05
2022-08-19T07:47:47.617Z,17.10
2022-08-19T07:50:10.337Z,17.92
2022-08-19T07:52:40.505Z,16.80
2022-08-19T07:55:40.212Z,18.48
2022-08-19T07:57:56.632Z,19.38
2022-08-19T08:00:24.650Z,22.67
2022-08-19T08:02:55.190Z,18.25
2022-08-19T08:05:43.699Z,19.48
2022-08-19T08:08:30.067Z,18.98
2022-08-19T08:10:57.220Z,18.38
2022-08-19T08:13:25.358Z,19.10
2022-08-19T08:15:54.833Z,18.58
2022-08-19T08:18:23.611Z,20.45
2022-08-19T08:20:55.562Z,19.05
2022-08-19T08:23:30.151Z,18.58
2022-08-19T08:25:59.039Z,19.50
2022-08-19T08:28:29.528Z,21.13
2022-08-19T08:30:57.973Z,18.65
2022-08-19T08:33:34.010Z,18.20
2022-08-19T08:36:12.356Z,30.92
2022-08-19T08:38:40.833Z,19.02
2022-08-19T08:41:20.834Z,19.35
2022-08-19T08:43:52.079Z,19.65
2022-08-19T08:46:47.820Z,18.58
2022-08-19T08:49:21.440Z,18.90
2022-08-19T08:51:59.294Z,18.00
2022-08-19T08:54:34.737Z,20.33
2022-08-19T08:57:06.691Z,19.27
2022-08-19T08:59:37.832Z,19.30
2022-08-19T09:02:04.777Z,18.58
2022-08-19T09:04:31.623Z,19.90
2022-08-19T09:07:18.151Z,18.83
2022-08-19T09:10:26.768Z,19.10
2022-08-19T09:13:23.261Z,18.85
2022-08-19T09:16:14.035Z,18.92
2022-08-19T09:18:54.018Z,22.17
2022-08-19T09:21:30.237Z,19.45
2022-08-19T09:24:00.331Z,20.75
2022-08-19T09:26:47.133Z,17.42
2022-08-19T09:29:14.877Z,17.83
2022-08-19T09:31:41.888Z,17.77
2022-08-19T09:34:09.412Z,18.15
2022-08-19T09:36:54.726Z,17.75
2022-08-19T09:39:21.961Z,18.77
2022-08-19T09:41:50.656Z,19.13
2022-08-19T09:44:18.194Z,19.35
2022-08-19T09:46:48.038Z,20.70
2022-08-19T09:49:16.208Z,18.60
2022-08-19T09:51:50.893Z,20.30
2022-08-19T09:54:23.387Z,17.42
2022-08-19T09:56:51.390Z,20.13
2022-08-19T09:59:18.114Z,21.50
2022-08-19T10:01:44.975Z,20.88
2022-08-19T10:04:19.956Z,20.10
2022-08-19T10:06:48.691Z,18.65
2022-08-19T10:09:26.245Z,18.15
2022-08-19T10:12:02.685Z,17.30
2022-08-19T10:14:30.246Z,19.27
2022-08-19T10:16:57.560Z,21.03
2022-08-19T10:19:26.447Z,17.33
2022-08-19T10:21:54.311Z,18.20
2022-08-19T10:24:28.660Z,18.92
2022-08-19T10:26:58.846Z,20.08
2022-08-19T10:29:32.693Z,18.77
2022-08-19T10:32:02.582Z,21.75
2022-08-19T10:34:31.107Z,19.67
2022-08-19T10:37:01.154Z,18.50
2022-08-19T10:39:31.322Z,18.02
2022-08-19T10:41:58.840Z,17.17
2022-08-19T10:44:32.332Z,18.07
2022-08-19T10:47:00.414Z,17.02
2022-08-19T10:49:28.187Z,18.00
2022-08-19T10:52:18.053Z,17.83
2022-08-19T10:55:08.482Z,17.30
2022-08-19T11:00:24.192Z,16.70
2022-08-19T11:02:51.863Z,17.70
2022-08-19T11:05:19.549Z,17.13
2022-08-19T11:07:46.681Z,17.20
2022-08-19T11:10:19.485Z,16.60
2022-08-19T11:12:48.171Z,18.67
2022-08-19T11:15:15.174Z,17.90
2022-08-19T11:17:42.525Z,15.45
2022-08-19T11:20:11.827Z,15.93
2022-08-19T11:22:41.589Z,16.83
2022-08-19T11:25:11.702Z,15.65
2022-08-19T11:27:40.959Z,17.23
2022-08-19T11:30:08.645Z,19.42
2022-08-19T11:32:48.525Z,18.02
2022-08-19T11:35:16.861Z,14.70
2022-08-19T11:37:43.722Z,16.52
2022-08-19T11:40:11.313Z,15.25
2022-08-19T11:42:57.021Z,15.02
2022-08-19T11:48:12.017Z,14.70
2022-08-19T11:50:41.181Z,16.80
2022-08-19T11:53:08.091Z,15.15
2022-08-19T11:55:43.393Z,15.73
2022-08-19T11:58:18.924Z,18.63
2022-08-19T12:00:46.523Z,14.10
2022-08-19T12:03:14.491Z,13.98
2022-08-19T12:05:41.974Z,13.90
2022-08-19T12:08:09.612Z,13.52
2022-08-19T12:10:37.425Z,12.98
2022-08-19T12:13:04.613Z,12.77
2022-08-19T12:15:36.947Z,12.50
2022-08-19T12:18:05.440Z,12.88
2022-08-19T12:20:36.409Z,13.30
2022-08-19T12:23:04.274Z,12.52
2022-08-19T12:25:31.834Z,11.88
2022-08-19T12:27:59.482Z,14.35
2022-08-19T12:30:26.964Z,12.75
2022-08-19T12:32:54.502Z,11.60
2022-08-19T12:35:22.088Z,13.43
2022-08-19T12:37:55.830Z,16.25
2022-08-19T12:40:24.285Z,15.75
2022-08-19T12:42:54.370Z,15.00
2022-08-19T12:45:21.277Z,12.95
2022-08-19T12:47:49.568Z,14.55
2022-08-19T12:50:16.927Z,13.07
2022-08-19T12:52:43.643Z,15.45
2022-08-19T12:55:12.478Z,12.98
2022-08-19T12:57:39.923Z,12.88
2022-08-19T13:00:12.543Z,14.00
2022-08-19T13:02:47.439Z,14.23
2022-08-19T13:05:17.846Z,14.07
2022-08-19T13:07:44.983Z,14.13
2022-08-19T13:10:18.547Z,13.55
2022-08-19T13:12:48.213Z,13.43
2022-08-19T13:15:23.823Z,17.92
2022-08-19T13:17:53.425Z,13.13
2022-08-19T13:20:22.376Z,15.57
2022-08-19T13:22:49.452Z,14.07
2022-08-19T13:25:18.624Z,15.65
2022-08-19T13:27:45.472Z,15.50
2022-08-19T13:30:33.118Z,15.02
2022-08-19T13:33:12.137Z,14.52
2022-08-19T13:35:45.104Z,14.38
2022-08-19T13:38:12.854Z,12.75
2022-08-19T13:40:41.557Z,14.57
2022-08-19T13:43:22.493Z,13.15
2022-08-19T13:45:52.899Z,14.05
2022-08-19T13:48:19.773Z,14.43
2022-08-19T13:50:48.248Z,13.75
2022-08-19T13:53:16.105Z,13.68
2022-08-19T13:55:44.339Z,14.07
2022-08-19T14:00:43.186Z,13.82
2022-08-19T14:03:10.414Z,14.45
2022-08-19T14:05:37.672Z,13.65
2022-08-19T14:08:05.183Z,13.80
2022-08-19T14:10:33.012Z,14.23
2022-08-19T14:13:02.145Z,15.02
2022-08-19T14:15:29.754Z,13.52
2022-08-19T14:17:57.133Z,14.15
2022-08-19T14:20:26.067Z,16.70
2022-08-19T14:22:53.888Z,14.63
2022-08-19T14:25:25.267Z,15.55
2022-08-19T14:27:52.421Z,14.57
2022-08-19T14:30:22.995Z,14.70
2022-08-19T14:32:49.781Z,16.25
2022-08-19T14:35:17.255Z,14.95
2022-08-19T14:37:46.384Z,16.70
2022-08-19T14:40:18.736Z,14.32
2022-08-19T14:42:45.651Z,13.70
2022-08-19T14:45:12.816Z,13.32
2022-08-19T14:47:40.905Z,13.07
2022-08-19T14:50:10.417Z,13.35
2022-08-19T14:52:38.611Z,12.82
2022-08-19T14:55:07.717Z,13.47
2022-08-19T14:57:34.616Z,11.77
2022-08-19T15:00:01.454Z,11.30
2022-08-19T15:02:34.745Z,12.15
2022-08-19T15:05:02.560Z,11.90
2022-08-19T15:07:30.406Z,11.38
2022-08-19T15:09:57.674Z,12.35
2022-08-19T15:12:25.066Z,12.93
2022-08-19T15:14:55.775Z,12.35
2022-08-19T15:17:41.388Z,11.43
2022-08-19T15:20:13.459Z,13.07
2022-08-19T15:22:41.290Z,11.68
2022-08-19T15:25:11.787Z,12.65
2022-08-19T15:27:39.886Z,11.32
2022-08-19T15:30:09.267Z,11.07
2022-08-19T15:32:37.355Z,10.75
2022-08-19T15:40:05.367Z,10.45
2022-08-19T15:42:32.257Z,10.82
2022-08-19T15:45:00.585Z,11.73
2022-08-19T15:47:34.431Z,12.20
2022-08-19T15:50:14.031Z,12.75
2022-08-19T15:52:49.844Z,12.40
2022-08-19T15:55:32.150Z,11.40
2022-08-19T15:58:29.168Z,11.98
2022-08-19T16:01:21.115Z,12.43
2022-08-19T16:04:14.986Z,13.40
2022-08-19T16:06:54.678Z,13.35
2022-08-19T16:09:27.479Z,12.27
2022-08-19T16:12:01.246Z,12.25
2022-08-19T16:14:30.667Z,11.82
2022-08-19T16:16:57.503Z,10.63
2022-08-19T16:19:24.404Z,12.07
2022-08-19T16:21:53.236Z,10.77
2022-08-19T16:24:22.818Z,11.63
2022-08-19T16:26:49.582Z,12.23
2022-08-19T16:29:33.184Z,11.02
2022-08-19T16:32:05.275Z,11.00
2022-08-19T16:34:33.570Z,11.27
2022-08-19T16:37:01.341Z,12.05
2022-08-19T16:39:28.244Z,12.10
2022-08-19T16:41:54.983Z,10.20
2022-08-19T16:44:21.982Z,11.48
2022-08-19T16:46:58.745Z,11.20
2022-08-19T16:49:53.183Z,10.32
2022-08-19T16:52:14.942Z,9.90
2022-08-19T16:54:43.780Z,9.20
2022-08-19T16:57:12.329Z,9.98
2022-08-19T16:59:43.754Z,9.82
2022-08-19T17:02:15.784Z,9.15
2022-08-19T17:04:42.544Z,10.65
2022-08-19T17:07:10.550Z,8.80
2022-08-19T17:09:37.984Z,10.50
2022-08-19T17:12:05.627Z,11.35
2022-08-19T17:14:32.375Z,9.17
2022-08-19T17:16:59.222Z,9.13
2022-08-19T17:19:26.068Z,8.90
2022-08-19T17:21:53.089Z,11.50
2022-08-19T17:24:19.858Z,8.57
2022-08-19T17:26:46.758Z,10.43
2022-08-19T17:29:14.149Z,7.68
2022-08-19T17:31:40.926Z,8.17
2022-08-19T17:34:09.290Z,7.82
2022-08-19T17:36:36.130Z,8.13
2022-08-19T17:39:05.357Z,8.00
2022-08-19T17:41:34.209Z,7.15
2022-08-19T17:44:02.657Z,7.13
2022-08-19T17:46:30.099Z,9.48
2022-08-19T17:48:58.418Z,7.82
2022-08-19T17:51:34.027Z,7.60
2022-08-19T17:54:02.168Z,8.25
2022-08-19T17:56:28.877Z,7.95
2022-08-19T17:59:00.760Z,7.40
2022-08-19T18:01:39.027Z,8.32
2022-08-19T18:04:17.305Z,8.45
2022-08-19T18:06:46.934Z,8.15
2022-08-19T18:09:23.950Z,8.15
2022-08-19T18:11:53.063Z,8.75
2022-08-19T18:14:32.092Z,7.90
2022-08-19T18:17:09.210Z,9.27
2022-08-19T18:19:41.948Z,8.35
2022-08-19T18:22:23.294Z,12.25
2022-08-19T18:24:50.730Z,10.50
2022-08-19T18:27:20.762Z,12.85
2022-08-19T18:29:47.583Z,14.07
2022-08-19T18:32:17.042Z,12.43
2022-08-19T18:34:49.906Z,11.25
2022-08-19T18:37:16.635Z,10.15
2022-08-19T18:40:02.114Z,10.88
2022-08-19T18:42:47.510Z,10.13
2022-08-19T18:45:33.142Z,12.23
2022-08-19T18:48:27.840Z,11.02
2022-08-19T18:50:59.207Z,11.57
2022-08-19T18:53:29.699Z,12.13
2022-08-19T18:55:56.990Z,11.80
2022-08-19T18:58:33.731Z,12.30
2022-08-19T19:01:34.282Z,13.07
2022-08-19T19:04:05.430Z,13.82
2022-08-19T19:06:37.957Z,14.30
2022-08-19T19:09:05.711Z,15.30
2022-08-19T19:11:35.503Z,15.27
2022-08-19T19:14:04.231Z,16.10
2022-08-19T19:16:32.027Z,16.30
2022-08-19T19:18:59.672Z,16.55
2022-08-19T19:21:26.799Z,16.65
2022-08-19T19:23:54.852Z,17.08
2022-08-19T19:26:22.344Z,16.10
2022-08-19T19:28:49.710Z,16.20
2022-08-19T19:31:19.520Z,17.65
2022-08-19T19:33:46.422Z,20.15
2022-08-19T19:36:13.727Z,19.00
2022-08-19T19:38:48.348Z,19.67
2022-08-19T19:41:18.028Z,16.70
2022-08-19T19:43:44.873Z,20.00
2022-08-19T19:46:11.609Z,18.55
2022-08-19T19:48:38.801Z,19.15
2022-08-19T19:51:05.786Z,19.65
2022-08-19T19:53:33.806Z,20.40
2022-08-19T19:56:02.427Z,21.45
2022-08-19T19:58:31.071Z,21.90
2022-08-19T20:01:02.527Z,17.83
2022-08-19T20:03:36.536Z,18.67
2022-08-19T20:06:03.338Z,19.67
2022-08-19T20:08:48.498Z,18.83
2022-08-19T20:11:37.087Z,19.25
2022-08-19T20:14:11.545Z,19.10
2022-08-19T20:16:40.774Z,20.92
2022-08-19T20:19:08.087Z,20.38
2022-08-19T20:21:35.033Z,19.63
2022-08-19T20:24:09.573Z,18.67
2022-08-19T20:26:37.207Z,18.80
2022-08-19T20:29:13.285Z,18.30
2022-08-19T20:31:57.694Z,20.45
2022-08-19T20:34:26.463Z,19.48
2022-08-19T20:36:53.454Z,19.75
2022-08-19T20:39:20.180Z,18.52
2022-08-19T20:41:47.010Z,19.15
2022-08-19T20:44:13.715Z,19.02
2022-08-19T20:46:40.430Z,18.10
2022-08-19T20:49:08.240Z,20.02
2022-08-19T20:51:35.323Z,17.83
2022-08-19T20:54:02.064Z,19.35
2022-08-19T20:56:29.627Z,19.50
2022-08-19T20:59:00.104Z,17.38
2022-08-19T21:01:27.085Z,21.00
2022-08-19T21:03:53.864Z,19.90
2022-08-19T21:06:20.777Z,19.70
2022-08-19T21:08:50.009Z,17.80
2022-08-19T21:11:20.590Z,18.25
2022-08-19T21:13:48.309Z,18.17
2022-08-19T21:16:15.026Z,18.02
2022-08-19T21:18:41.757Z,16.80
2022-08-19T21:21:08.474Z,16.45
2022-08-19T21:23:35.519Z,17.33
2022-08-19T21:26:02.529Z,17.95
2022-08-19T21:28:35.994Z,17.27
2022-08-19T21:31:05.458Z,19.05
2022-08-19T21:33:32.957Z,18.23
2022-08-19T21:36:00.247Z,17.65
2022-08-19T21:38:27.499Z,17.98
2022-08-19T21:40:54.886Z,19.83
2022-08-19T21:43:22.794Z,17.43
2022-08-19T21:45:50.964Z,26.38
2022-08-19T21:50:48.226Z,19.52
2022-08-19T21:53:19.589Z,18.02
2022-08-19T21:55:53.413Z,18.83
2022-08-19T21:58:28.780Z,17.88
2022-08-19T22:00:58.891Z,17.60
2022-08-19T22:05:52.999Z,17.17
2022-08-19T22:08:20.028Z,16.90
2022-08-19T22:10:47.027Z,16.92
2022-08-19T22:13:14.579Z,17.60
2022-08-19T22:15:42.445Z,16.95
2022-08-19T22:18:09.289Z,20.35
2022-08-19T22:20:36.496Z,17.48
2022-08-19T22:23:05.669Z,16.67
2022-08-19T22:25:39.630Z,20.40
2022-08-19T22:28:10.975Z,18.23
2022-08-19T22:30:41.782Z,17.27
2022-08-19T22:33:16.837Z,15.88
2022-08-19T22:35:46.497Z,17.13
2022-08-19T22:38:14.450Z,18.92
2022-08-19T22:40:47.294Z,17.52
2022-08-19T22:43:27.376Z,17.95
2022-08-19T22:45:55.738Z,16.27
2022-08-19T22:48:25.883Z,14.95
2022-08-19T22:51:12.279Z,15.75
2022-08-19T22:53:41.925Z,15.88
2022-08-19T22:56:14.627Z,16.08
2022-08-19T22:58:42.380Z,16.95
2022-08-19T23:03:40.063Z,16.30
2022-08-19T23:06:07.599Z,15.00
2022-08-19T23:08:34.451Z,18.42
2022-08-19T23:11:01.299Z,16.38
2022-08-19T23:13:29.175Z,15.27
2022-08-19T23:15:55.878Z,16.08
2022-08-19T23:18:22.655Z,14.57
2022-08-19T23:20:49.853Z,15.50
2022-08-19T23:23:19.194Z,14.75
2022-08-19T23:25:47.502Z,15.02
2022-08-19T23:28:32.970Z,15.00
2022-08-19T23:31:00.166Z,14.13
2022-08-19T23:33:51.448Z,15.68
2022-08-19T23:36:19.800Z,14.10
2022-08-19T23:38:48.694Z,14.50
2022-08-19T23:41:16.719Z,14.20
2022-08-19T23:43:44.510Z,14.52
2022-08-19T23:46:13.589Z,15.23
2022-08-19T23:48:40.742Z,15.43
2022-08-19T23:51:10.204Z,16.15
2022-08-19T23:53:38.623Z,16.83
2022-08-19T23:56:07.426Z,16.65
2022-08-19T23:58:35.225Z,16.25
